createdAt,value
2024-01-04T00:00:32.020Z,98843.59
2024-01-04T00:02:54.075Z,98837.09
2024-01-04T00:05:16.026Z,98843.16
2024-01-04T00:07:38.946Z,98828.31
2024-01-04T00:10:00.977Z,98846.09
2024-01-04T00:12:22.998Z,98853.63
2024-01-04T00:14:45.449Z,98848.22
2024-01-04T00:17:07.786Z,98853.00
2024-01-04T00:19:29.811Z,98852.69
2024-01-04T00:21:51.750Z,98854.75
2024-01-04T00:24:13.829Z,98863.59
2024-01-04T00:26:35.877Z,98856.25
2024-01-04T00:28:58.589Z,98866.41
2024-01-04T00:31:20.466Z,98866.03
2024-01-04T00:33:42.626Z,98871.13
2024-01-04T00:36:05.141Z,98872.44
2024-01-04T00:38:27.054Z,98876.66
2024-01-04T00:40:49.020Z,98867.22
2024-01-04T00:43:11.104Z,98869.84
2024-01-04T00:45:33.561Z,98877.16
2024-01-04T00:47:55.610Z,98864.13
2024-01-04T00:50:17.641Z,98881.72
2024-01-04T00:52:39.591Z,98890.19
2024-01-04T00:55:01.512Z,98888.09
2024-01-04T00:57:23.374Z,98892.34
2024-01-04T00:59:45.391Z,98900.31
2024-01-04T01:02:07.395Z,98906.84
2024-01-04T01:04:29.363Z,98905.06
2024-01-04T01:06:51.376Z,98911.06
2024-01-04T01:09:13.471Z,98910.94
2024-01-04T01:11:35.442Z,98911.53
2024-01-04T01:13:57.445Z,98901.91
2024-01-04T01:16:19.352Z,98909.91
2024-01-04T01:18:41.765Z,98905.50
2024-01-04T01:21:03.915Z,98917.75
2024-01-04T01:23:25.796Z,98909.25
2024-01-04T01:25:47.730Z,98916.41
2024-01-04T01:28:09.619Z,98916.41
2024-01-04T01:30:31.652Z,98913.28
2024-01-04T01:32:53.740Z,98915.59
2024-01-04T01:35:15.824Z,98924.03
2024-01-04T01:37:38.240Z,98925.53
2024-01-04T01:40:00.202Z,98920.44
2024-01-04T01:42:22.458Z,98921.25
2024-01-04T01:44:44.453Z,98934.63
2024-01-04T01:47:06.737Z,98935.31
2024-01-04T01:49:28.882Z,98935.31
2024-01-04T01:51:51.199Z,98935.97
2024-01-04T01:54:13.782Z,98936.63
2024-01-04T01:56:35.991Z,98938.25
2024-01-04T01:59:04.428Z,98953.63
2024-01-04T02:01:26.672Z,98952.78
2024-01-04T02:03:49.295Z,98963.06
2024-01-04T02:06:11.465Z,98967.94
2024-01-04T02:08:33.459Z,98978.06
2024-01-04T02:10:55.454Z,98978.59
2024-01-04T02:13:17.444Z,98984.94
2024-01-04T02:15:39.460Z,98976.94
2024-01-04T02:18:01.890Z,98982.81
2024-01-04T02:20:24.158Z,98990.44
2024-01-04T02:22:46.439Z,98992.44
2024-01-04T02:25:08.911Z,98983.00
2024-01-04T02:27:30.758Z,98986.72
2024-01-04T02:29:52.842Z,99005.81
2024-01-04T02:32:14.861Z,99005.75
2024-01-04T02:34:36.822Z,99001.50
2024-01-04T02:36:58.752Z,99019.09
2024-01-04T02:39:20.780Z,99016.47
2024-01-04T02:41:42.752Z,99022.75
2024-01-04T02:44:04.620Z,99025.22
2024-01-04T02:46:26.517Z,99017.38
2024-01-04T02:48:48.493Z,99007.94
2024-01-04T02:51:10.558Z,99008.38
2024-01-04T02:53:32.513Z,99004.13
2024-01-04T02:55:56.356Z,99002.50
2024-01-04T02:58:19.231Z,99020.38
2024-01-04T03:00:41.190Z,99021.94
2024-01-04T03:03:03.397Z,99026.34
2024-01-04T03:05:25.373Z,99028.19
2024-01-04T03:07:47.297Z,99020.31
2024-01-04T03:10:09.536Z,99030.38
2024-01-04T03:12:31.465Z,99032.97
2024-01-04T03:14:54.200Z,99034.22
2024-01-04T03:17:16.110Z,99035.03
2024-01-04T03:19:38.044Z,99040.56
2024-01-04T03:22:00.020Z,99054.94
2024-01-04T03:24:21.885Z,99041.69
2024-01-04T03:26:43.884Z,99050.84
2024-01-04T03:29:05.769Z,99042.50
2024-01-04T03:31:27.707Z,99047.56
2024-01-04T03:33:50.652Z,99056.34
2024-01-04T03:36:15.536Z,99049.06
2024-01-04T03:38:37.655Z,99053.84
2024-01-04T03:41:03.496Z,99056.22
2024-01-04T03:43:25.450Z,99065.97
2024-01-04T03:45:47.405Z,99062.25
2024-01-04T03:48:09.532Z,99062.09
2024-01-04T03:50:31.562Z,99068.28
2024-01-04T03:52:54.902Z,99064.56
2024-01-04T03:55:17.164Z,99070.47
2024-01-04T03:57:39.306Z,99050.44
2024-01-04T04:00:02.940Z,99063.81
2024-01-04T04:02:24.923Z,99062.19
2024-01-04T04:04:46.863Z,99068.69
2024-01-04T04:07:08.861Z,99067.78
2024-01-04T04:09:30.811Z,99068.28
2024-01-04T04:11:52.815Z,99073.66
2024-01-04T04:14:14.760Z,99075.44
2024-01-04T04:16:41.781Z,99087.16
2024-01-04T04:19:04.687Z,99085.06
2024-01-04T04:21:26.735Z,99093.28
2024-01-04T04:23:51.302Z,99096.53
2024-01-04T04:26:13.390Z,99101.09
2024-01-04T04:28:35.218Z,99099.44
2024-01-04T04:30:57.231Z,99109.50
2024-01-04T04:33:19.282Z,99107.03
2024-01-04T04:35:51.090Z,99121.72
2024-01-04T04:38:17.583Z,99117.44
2024-01-04T04:40:39.504Z,99133.09
2024-01-04T04:43:01.329Z,99130.66
2024-01-04T04:45:23.341Z,99131.47
2024-01-04T04:47:45.564Z,99135.34
2024-01-04T04:50:08.219Z,99138.91
2024-01-04T04:52:30.978Z,99139.72
2024-01-04T04:54:52.872Z,99140.31
2024-01-04T04:57:14.873Z,99143.03
2024-01-04T04:59:36.785Z,99154.59
2024-01-04T05:01:58.672Z,99148.25
2024-01-04T05:04:20.754Z,99166.81
2024-01-04T05:06:42.894Z,99179.59
2024-01-04T05:09:04.886Z,99175.06
2024-01-04T05:11:26.763Z,99167.63
2024-01-04T05:13:48.653Z,99182.72
2024-01-04T05:16:11.163Z,99187.25
2024-01-04T05:18:33.178Z,99199.34
2024-01-04T05:20:55.154Z,99190.84
2024-01-04T05:23:18.891Z,99205.25
2024-01-04T05:25:42.014Z,99204.00
2024-01-04T05:28:04.404Z,99209.72
2024-01-04T05:30:26.480Z,99212.88
2024-01-04T05:32:48.681Z,99228.41
2024-01-04T05:35:13.003Z,99233.63
2024-01-04T05:37:35.005Z,99245.41
2024-01-04T05:39:59.624Z,99238.97
2024-01-04T05:42:22.887Z,99251.31
2024-01-04T05:44:44.912Z,99245.41
2024-01-04T05:47:08.260Z,99263.53
2024-01-04T05:49:30.213Z,99268.31
2024-01-04T05:51:52.194Z,99268.84
2024-01-04T05:54:14.152Z,99273.91
2024-01-04T05:56:36.114Z,99278.84
2024-01-04T05:58:58.092Z,99289.13
2024-01-04T06:01:20.069Z,99295.03
2024-01-04T06:03:42.126Z,99293.41
2024-01-04T06:06:04.625Z,99311.34
2024-01-04T06:08:26.593Z,99310.41
2024-01-04T06:10:48.641Z,99308.31
2024-01-04T06:13:10.710Z,99310.09
2024-01-04T06:15:32.699Z,99323.03
2024-01-04T06:17:54.828Z,99315.88
2024-01-04T06:20:17.207Z,99316.97
2024-01-04T06:22:40.609Z,99323.56
2024-01-04T06:25:02.563Z,99335.09
2024-01-04T06:27:24.623Z,99330.97
2024-01-04T06:29:46.768Z,99330.16
2024-01-04T06:32:09.354Z,99336.06
2024-01-04T06:34:31.510Z,99340.31
2024-01-04T06:36:53.491Z,99341.97
2024-01-04T06:39:15.856Z,99343.31
2024-01-04T06:41:39.488Z,99342.22
2024-01-04T06:44:01.636Z,99346.34
2024-01-04T06:46:23.614Z,99356.50
2024-01-04T06:48:45.741Z,99346.88
2024-01-04T06:51:07.961Z,99357.63
2024-01-04T06:53:29.875Z,99360.06
2024-01-04T06:55:51.771Z,99356.78
2024-01-04T06:58:13.693Z,99362.81
2024-01-04T07:00:35.763Z,99372.59
2024-01-04T07:02:57.748Z,99380.09
2024-01-04T07:05:19.671Z,99390.13
2024-01-04T07:07:41.690Z,99386.69
2024-01-04T07:10:04.457Z,99388.03
2024-01-04T07:12:27.127Z,99393.00
2024-01-04T07:14:49.066Z,99394.09
2024-01-04T07:17:11.003Z,99394.38
2024-01-04T07:19:32.999Z,99385.22
2024-01-04T07:21:55.080Z,99401.53
2024-01-04T07:24:17.464Z,99407.28
2024-01-04T07:26:39.552Z,99417.16
2024-01-04T07:29:01.935Z,99422.25
2024-01-04T07:31:23.975Z,99410.84
2024-01-04T07:33:46.096Z,99419.66
2024-01-04T07:36:11.155Z,99429.00
2024-01-04T07:38:35.588Z,99423.88
2024-01-04T07:40:57.551Z,99421.56
2024-01-04T07:43:19.940Z,99420.59
2024-01-04T07:45:41.939Z,99431.88
2024-01-04T07:48:04.487Z,99427.47
2024-01-04T07:50:26.567Z,99432.84
2024-01-04T07:52:48.551Z,99443.56
2024-01-04T07:55:10.494Z,99455.34
2024-01-04T07:57:32.512Z,99452.59
2024-01-04T07:59:54.493Z,99456.88
2024-01-04T08:02:17.418Z,99459.06
2024-01-04T08:04:39.356Z,99460.88
2024-01-04T08:07:01.408Z,99455.63
2024-01-04T08:09:23.519Z,99459.75
2024-01-04T08:11:45.643Z,99464.97
2024-01-04T08:14:08.385Z,99460.72
2024-01-04T08:16:30.819Z,99466.63
2024-01-04T08:18:52.912Z,99470.19
2024-01-04T08:21:15.146Z,99466.63
2024-01-04T08:23:38.153Z,99480.91
2024-01-04T08:26:00.268Z,99491.59
2024-01-04T08:28:22.160Z,99489.94
2024-01-04T08:30:44.241Z,99487.88
2024-01-04T08:33:06.420Z,99495.56
2024-01-04T08:35:28.610Z,99502.28
2024-01-04T08:37:51.083Z,99495.69
2024-01-04T08:40:14.429Z,99510.13
2024-01-04T08:42:39.282Z,99523.28
2024-01-04T08:45:01.356Z,99529.06
2024-01-04T08:47:24.632Z,99532.47
2024-01-04T08:49:46.691Z,99535.53
2024-01-04T08:52:11.596Z,99541.41
2024-01-04T08:54:33.438Z,99542.25
2024-01-04T08:56:55.530Z,99549.00
2024-01-04T08:59:17.664Z,99548.16
2024-01-04T09:01:39.577Z,99548.16
2024-01-04T09:04:03.007Z,99547.59
2024-01-04T09:06:25.074Z,99548.31
2024-01-04T09:08:47.032Z,99548.59
2024-01-04T09:11:09.060Z,99560.81
2024-01-04T09:13:31.272Z,99555.84
2024-01-04T09:15:53.230Z,99555.56
2024-01-04T09:18:15.258Z,99567.09
2024-01-04T09:20:37.323Z,99558.88
2024-01-04T09:22:59.386Z,99562.97
2024-01-04T09:25:21.310Z,99566.53
2024-01-04T09:27:43.245Z,99573.25
2024-01-04T09:30:05.918Z,99574.69
2024-01-04T09:32:27.850Z,99585.94
2024-01-04T09:34:51.210Z,99586.72
2024-01-04T09:37:13.386Z,99592.88
2024-01-04T09:39:35.382Z,99593.44
2024-01-04T09:41:58.252Z,99591.00
2024-01-04T09:44:20.453Z,99597.84
2024-01-04T09:46:43.641Z,99599.88
2024-01-04T09:49:08.241Z,99599.16
2024-01-04T09:51:40.489Z,99604.00
2024-01-04T09:54:03.304Z,99600.69
2024-01-04T09:56:27.704Z,99602.38
2024-01-04T09:58:50.689Z,99598.88
2024-01-04T10:01:15.569Z,99606.09
2024-01-04T10:03:44.307Z,99597.84
2024-01-04T10:06:10.367Z,99602.38
2024-01-04T10:08:38.698Z,99601.72
2024-01-04T10:11:12.097Z,99595.75
2024-01-04T10:13:35.082Z,99591.97
2024-01-04T10:15:57.036Z,99607.72
2024-01-04T10:18:20.510Z,99602.56
2024-01-04T10:20:42.688Z,99598.72
2024-01-04T10:23:05.369Z,99597.31
2024-01-04T10:25:27.273Z,99596.00
2024-01-04T10:27:59.667Z,99600.34
2024-01-04T10:30:21.853Z,99602.38
2024-01-04T10:32:51.324Z,99612.47
2024-01-04T10:35:13.404Z,99590.56
2024-01-04T10:37:35.698Z,99576.53
2024-01-04T10:39:59.261Z,99593.19
2024-01-04T10:42:21.177Z,99595.13
2024-01-04T10:44:47.033Z,99599.44
2024-01-04T10:47:14.424Z,99594.38
2024-01-04T10:49:42.650Z,99584.72
2024-01-04T10:52:10.261Z,99594.66
2024-01-04T10:54:35.756Z,99591.41
2024-01-04T10:57:00.933Z,99597.16
2024-01-04T10:59:23.482Z,99602.41
2024-01-04T11:01:46.298Z,99602.16
2024-01-04T11:04:10.169Z,99605.75
2024-01-04T11:06:40.928Z,99611.13
2024-01-04T11:09:02.864Z,99617.72
2024-01-04T11:11:28.603Z,99615.94
2024-01-04T11:13:50.516Z,99623.06
2024-01-04T11:16:46.940Z,99612.44
2024-01-04T11:20:02.178Z,99615.06
2024-01-04T11:22:32.964Z,99621.78
2024-01-04T11:25:25.933Z,99621.38
2024-01-04T11:27:48.522Z,99617.72
2024-01-04T11:30:11.716Z,99630.22
2024-01-04T11:32:36.125Z,99633.53
2024-01-04T11:34:58.684Z,99629.53
2024-01-04T11:37:24.366Z,99632.16
2024-01-04T11:39:58.030Z,99634.09
2024-01-04T11:42:20.973Z,99630.78
2024-01-04T11:44:49.651Z,99634.25
2024-01-04T11:47:15.592Z,99632.59
2024-01-04T11:49:53.881Z,99632.47
2024-01-04T11:52:21.414Z,99630.78
2024-01-04T11:54:43.410Z,99628.75
2024-01-04T11:57:23.104Z,99627.75
2024-01-04T11:59:45.213Z,99629.41
2024-01-04T12:02:08.532Z,99620.78
2024-01-04T12:04:33.034Z,99631.22
2024-01-04T12:06:57.744Z,99639.63
2024-01-04T12:09:20.530Z,99632.72
2024-01-04T12:11:44.468Z,99625.97
2024-01-04T12:14:08.128Z,99634.66
2024-01-04T12:16:31.181Z,99615.56
2024-01-04T12:18:53.347Z,99622.88
2024-01-04T12:21:18.685Z,99629.03
2024-01-04T12:23:41.514Z,99624.53
2024-01-04T12:26:04.450Z,99632.22
2024-01-04T12:28:28.534Z,99625.22
2024-01-04T12:30:50.561Z,99628.09
2024-01-04T12:33:12.653Z,99630.56
2024-01-04T12:35:34.574Z,99637.84
2024-01-04T12:38:05.420Z,99637.31
2024-01-04T12:40:28.662Z,99639.50
2024-01-04T12:42:50.614Z,99636.88
2024-01-04T12:45:12.585Z,99641.97
2024-01-04T12:47:35.322Z,99640.88
2024-01-04T12:49:58.419Z,99646.09
2024-01-04T12:52:20.493Z,99662.00
2024-01-04T12:54:42.417Z,99659.69
2024-01-04T12:57:04.663Z,99655.56
2024-01-04T12:59:26.777Z,99659.56
2024-01-04T13:01:48.968Z,99644.59
2024-01-04T13:04:12.367Z,99666.56
2024-01-04T13:06:34.608Z,99664.09
2024-01-04T13:08:58.015Z,99659.16
2024-01-04T13:11:20.456Z,99671.53
2024-01-04T13:13:43.813Z,99674.13
2024-01-04T13:16:07.115Z,99673.16
2024-01-04T13:18:29.195Z,99678.66
2024-01-04T13:20:51.530Z,99673.44
2024-01-04T13:23:13.782Z,99670.66
2024-01-04T13:25:35.942Z,99673.56
2024-01-04T13:27:57.905Z,99666.84
2024-01-04T13:30:21.465Z,99670.16
2024-01-04T13:32:44.502Z,99666.16
2024-01-04T13:35:06.794Z,99674.84
2024-01-04T13:37:28.693Z,99679.50
2024-01-04T13:39:50.551Z,99677.28
2024-01-04T13:42:12.531Z,99688.56
2024-01-04T13:44:35.443Z,99676.47
2024-01-04T13:46:57.376Z,99686.09
2024-01-04T13:49:19.949Z,99687.19
2024-01-04T13:51:44.862Z,99682.78
2024-01-04T13:54:09.922Z,99685.69
2024-01-04T13:56:32.648Z,99690.88
2024-01-04T13:58:54.576Z,99677.00
2024-01-04T14:01:16.740Z,99688.84
2024-01-04T14:03:39.277Z,99693.66
2024-01-04T14:06:02.391Z,99681.00
2024-01-04T14:08:26.216Z,99694.06
2024-01-04T14:10:49.660Z,99694.88
2024-01-04T14:13:11.761Z,99706.16
2024-01-04T14:15:33.792Z,99698.47
2024-01-04T14:17:56.045Z,99706.00
2024-01-04T14:20:20.020Z,99696.38
2024-01-04T14:22:48.691Z,99695.13
2024-01-04T14:25:10.822Z,99699.22
2024-01-04T14:27:32.879Z,99706.09
2024-01-04T14:29:54.941Z,99709.91
2024-01-04T14:32:16.880Z,99711.84
2024-01-04T14:34:38.886Z,99717.31
2024-01-04T14:37:00.882Z,99718.13
2024-01-04T14:39:23.107Z,99723.34
2024-01-04T14:41:45.196Z,99716.09
2024-01-04T14:44:07.406Z,99719.28
2024-01-04T14:46:29.618Z,99722.00
2024-01-04T14:48:51.898Z,99722.81
2024-01-04T14:51:20.414Z,99724.06
2024-01-04T14:53:42.596Z,99719.91
2024-01-04T14:56:06.831Z,99729.66
2024-01-04T14:58:28.721Z,99720.19
2024-01-04T15:00:51.213Z,99724.72
2024-01-04T15:03:13.232Z,99726.50
2024-01-04T15:05:35.216Z,99720.03
2024-01-04T15:07:57.599Z,99730.88
2024-01-04T15:10:19.518Z,99730.59
2024-01-04T15:12:41.396Z,99722.22
2024-01-04T15:15:04.074Z,99723.53
2024-01-04T15:17:26.506Z,99732.00
2024-01-04T15:19:49.002Z,99731.19
2024-01-04T15:22:11.017Z,99735.00
2024-01-04T15:24:32.900Z,99739.22
2024-01-04T15:26:54.790Z,99742.91
2024-01-04T15:29:16.696Z,99743.50
2024-01-04T15:31:38.673Z,99743.63
2024-01-04T15:34:01.361Z,99752.72
2024-01-04T15:36:23.641Z,99747.13
2024-01-04T15:38:46.045Z,99753.75
2024-01-04T15:41:08.095Z,99750.88
2024-01-04T15:43:30.187Z,99746.94
2024-01-04T15:45:52.052Z,99754.38
2024-01-04T15:48:16.923Z,99749.97
2024-01-04T15:50:40.044Z,99749.97
2024-01-04T15:53:02.066Z,99746.81
2024-01-04T15:55:23.933Z,99749.44
2024-01-04T15:57:46.150Z,99746.53
2024-01-04T16:00:09.083Z,99741.59
2024-01-04T16:02:31.032Z,99742.13
2024-01-04T16:04:52.898Z,99740.47
2024-01-04T16:07:14.876Z,99728.78
2024-01-04T16:09:36.881Z,99733.03
2024-01-04T16:11:58.972Z,99736.59
2024-01-04T16:14:20.965Z,99729.03
2024-01-04T16:16:42.852Z,99729.28
2024-01-04T16:19:04.862Z,99724.44
2024-01-04T16:21:26.982Z,99724.00
2024-01-04T16:23:49.137Z,99722.84
2024-01-04T16:26:13.028Z,99718.00
2024-01-04T16:28:38.626Z,99715.53
2024-01-04T16:31:00.729Z,99712.25
2024-01-04T16:33:22.814Z,99704.25
2024-01-04T16:35:45.999Z,99703.78
2024-01-04T16:38:08.699Z,99703.22
2024-01-04T16:40:31.175Z,99700.06
2024-01-04T16:42:53.185Z,99698.97
2024-01-04T16:45:15.260Z,99699.78
2024-01-04T16:47:37.581Z,99703.22
2024-01-04T16:50:00.720Z,99705.31
2024-01-04T16:52:22.765Z,99699.03
2024-01-04T16:54:44.811Z,99705.88
2024-01-04T16:57:07.374Z,99702.47
2024-01-04T16:59:29.465Z,99705.19
2024-01-04T17:01:51.408Z,99700.94
2024-01-04T17:04:13.352Z,99700.09
2024-01-04T17:06:35.369Z,99692.69
2024-01-04T17:08:57.467Z,99692.94
2024-01-04T17:11:19.579Z,99689.38
2024-01-04T17:13:41.530Z,99689.66
2024-01-04T17:16:04.053Z,99688.13
2024-01-04T17:18:26.603Z,99689.31
2024-01-04T17:20:49.819Z,99683.41
2024-01-04T17:23:11.824Z,99677.63
2024-01-04T17:25:33.752Z,99680.50
2024-01-04T17:27:56.273Z,99679.53
2024-01-04T17:30:21.052Z,99680.34
2024-01-04T17:32:43.229Z,99680.59
2024-01-04T17:35:05.645Z,99680.97
2024-01-04T17:37:29.290Z,99697.56
2024-01-04T17:39:51.344Z,99696.19
2024-01-04T17:42:13.736Z,99704.03
2024-01-04T17:44:35.655Z,99697.06
2024-01-04T17:46:57.681Z,99697.91
2024-01-04T17:49:19.621Z,99705.25
2024-01-04T17:51:41.775Z,99695.47
2024-01-04T17:54:04.228Z,99701.13
2024-01-04T17:56:26.287Z,99706.59
2024-01-04T17:58:48.801Z,99708.38
2024-01-04T18:01:13.774Z,99708.88
2024-01-04T18:03:37.012Z,99707.19
2024-01-04T18:05:59.002Z,99713.38
2024-01-04T18:08:21.534Z,99712.66
2024-01-04T18:10:43.609Z,99711.75
2024-01-04T18:13:05.560Z,99713.66
2024-01-04T18:15:27.525Z,99713.16
2024-01-04T18:17:49.693Z,99713.75
2024-01-04T18:20:12.003Z,99713.75
2024-01-04T18:22:36.838Z,99708.53
2024-01-04T18:24:58.796Z,99709.25
2024-01-04T18:27:20.813Z,99717.44
2024-01-04T18:29:43.729Z,99713.88
2024-01-04T18:32:06.235Z,99708.69
2024-01-04T18:34:30.578Z,99713.19
2024-01-04T18:36:52.622Z,99715.53
2024-01-04T18:39:17.179Z,99720.63
2024-01-04T18:41:40.195Z,99712.25
2024-01-04T18:44:03.062Z,99711.28
2024-01-04T18:46:24.959Z,99712.25
2024-01-04T18:48:46.936Z,99710.56
2024-01-04T18:51:09.584Z,99712.47
2024-01-04T18:53:33.791Z,99711.28
2024-01-04T18:55:55.662Z,99715.78
2024-01-04T18:58:17.521Z,99711.97
2024-01-04T19:00:39.866Z,99714.00
2024-01-04T19:03:01.905Z,99709.00
2024-01-04T19:05:23.886Z,99704.16
2024-01-04T19:07:46.183Z,99699.66
2024-01-04T19:10:08.858Z,99696.34
2024-01-04T19:12:30.845Z,99693.97
2024-01-04T19:14:52.798Z,99691.38
2024-01-04T19:17:14.700Z,99694.13
2024-01-04T19:19:36.654Z,99701.34
2024-01-04T19:21:58.695Z,99700.16
2024-01-04T19:24:20.721Z,99698.97
2024-01-04T19:26:42.761Z,99693.63
2024-01-04T19:29:04.720Z,99693.41
2024-01-04T19:31:26.829Z,99691.50
2024-01-04T19:33:48.993Z,99672.09
2024-01-04T19:36:11.074Z,99672.34
2024-01-04T19:38:33.070Z,99676.84
2024-01-04T19:40:54.980Z,99674.25
2024-01-04T19:43:16.841Z,99669.78
2024-01-04T19:45:39.230Z,99656.44
2024-01-04T19:48:01.280Z,99663.50
2024-01-04T19:50:25.339Z,99654.19
2024-01-04T19:52:49.368Z,99664.94
2024-01-04T19:55:14.452Z,99668.47
2024-01-04T19:57:36.357Z,99673.91
2024-01-04T19:59:58.310Z,99666.50
2024-01-04T20:02:20.410Z,99657.84
2024-01-04T20:04:42.960Z,99654.06
2024-01-04T20:07:13.167Z,99646.38
2024-01-04T20:09:35.607Z,99655.47
2024-01-04T20:11:57.664Z,99646.47
2024-01-04T20:14:19.606Z,99654.13
2024-01-04T20:16:43.030Z,99648.47
2024-01-04T20:19:05.310Z,99654.38
2024-01-04T20:21:27.546Z,99651.28
2024-01-04T20:23:49.505Z,99644.72
2024-01-04T20:26:12.466Z,99650.63
2024-01-04T20:28:34.488Z,99646.03
2024-01-04T20:30:57.360Z,99640.94
2024-01-04T20:33:19.419Z,99638.31
2024-01-04T20:35:41.441Z,99637.97
2024-01-04T20:38:03.617Z,99633.22
2024-01-04T20:40:25.537Z,99632.94
2024-01-04T20:42:47.476Z,99633.09
2024-01-04T20:45:09.534Z,99643.16
2024-01-04T20:47:33.522Z,99623.41
2024-01-04T20:49:55.501Z,99623.88
2024-01-04T20:52:18.254Z,99619.88
2024-01-04T20:54:40.717Z,99621.09
2024-01-04T20:57:02.629Z,99613.41
2024-01-04T20:59:24.560Z,99625.00
2024-01-04T21:01:47.726Z,99623.09
2024-01-04T21:04:11.093Z,99623.22
2024-01-04T21:06:33.762Z,99629.38
2024-01-04T21:08:55.822Z,99625.38
2024-01-04T21:11:17.772Z,99638.97
2024-01-04T21:13:39.676Z,99629.81
2024-01-04T21:16:01.875Z,99623.69
2024-01-04T21:18:23.938Z,99622.00
2024-01-04T21:20:47.622Z,99616.44
2024-01-04T21:23:12.766Z,99621.50
2024-01-04T21:25:34.736Z,99615.25
2024-01-04T21:27:56.644Z,99624.38
2024-01-04T21:30:18.696Z,99618.81
2024-01-04T21:32:40.655Z,99614.91
2024-01-04T21:35:02.805Z,99613.41
2024-01-04T21:37:24.673Z,99617.09
2024-01-04T21:39:49.320Z,99609.66
2024-01-04T21:42:13.573Z,99602.16
2024-01-04T21:44:39.072Z,99598.72
2024-01-04T21:47:00.930Z,99597.66
2024-01-04T21:49:24.024Z,99597.91
2024-01-04T21:51:46.837Z,99598.53
2024-01-04T21:54:09.071Z,99593.72
2024-01-04T21:56:31.372Z,99600.81
2024-01-04T21:58:54.240Z,99587.81
2024-01-04T22:01:27.300Z,99593.16
2024-01-04T22:03:49.293Z,99585.91
2024-01-04T22:06:11.373Z,99584.25
2024-01-04T22:08:33.272Z,99582.09
2024-01-04T22:10:55.261Z,99587.44
2024-01-04T22:13:17.745Z,99585.78
2024-01-04T22:15:41.178Z,99583.44
2024-01-04T22:18:05.909Z,99572.91
2024-01-04T22:20:27.956Z,99572.63
2024-01-04T22:22:51.209Z,99582.22
2024-01-04T22:25:13.107Z,99574.53
2024-01-04T22:27:34.981Z,99568.16
2024-01-04T22:29:57.043Z,99566.69
2024-01-04T22:32:18.994Z,99557.94
2024-01-04T22:34:41.006Z,99559.38
2024-01-04T22:37:03.651Z,99547.91
2024-01-04T22:39:25.612Z,99549.34
2024-01-04T22:41:50.239Z,99540.72
2024-01-04T22:44:13.105Z,99537.69
2024-01-04T22:46:35.067Z,99545.22
2024-01-04T22:48:57.074Z,99534.25
2024-01-04T22:51:19.487Z,99539.47
2024-01-04T22:53:41.415Z,99542.88
2024-01-04T22:56:03.467Z,99529.19
2024-01-04T22:58:25.351Z,99528.34
2024-01-04T23:00:47.364Z,99528.69
2024-01-04T23:03:09.401Z,99524.69
2024-01-04T23:05:31.360Z,99528.53
2024-01-04T23:07:53.664Z,99524.69
2024-01-04T23:10:15.552Z,99521.81
2024-01-04T23:12:37.725Z,99520.03
2024-01-04T23:15:00.528Z,99503.41
2024-01-04T23:17:22.557Z,99502.47
2024-01-04T23:19:45.495Z,99506.19
2024-01-04T23:22:08.655Z,99507.41
2024-01-04T23:24:30.601Z,99501.50
2024-01-04T23:26:52.592Z,99494.69
2024-01-04T23:29:14.486Z,99489.03
2024-01-04T23:31:36.799Z,99484.38
2024-01-04T23:33:58.847Z,99475.63
2024-01-04T23:36:20.962Z,99476.97
2024-01-04T23:38:43.176Z,99477.09
2024-01-04T23:41:05.237Z,99466.13
2024-01-04T23:43:27.400Z,99459.25
2024-01-04T23:45:49.328Z,99458.47
2024-01-04T23:48:11.300Z,99453.69
2024-01-04T23:50:33.340Z,99450.97
2024-01-04T23:52:55.335Z,99444.69
2024-01-04T23:55:17.214Z,99441.69
2024-01-04T23:57:39.142Z,99438.66
